Time;durP1;ratioP1;P1;durP2;ratioP2;P2;SDS_P1;SDS_P2;PMS_P1;PMS_P2;Temp;Humidity;BMP_temperature;BMP_pressure;BME280_temperature;BME280_humidity;BME280_pressure;Samples;Min_cycle;Max_cycle;Signal;HPM_P1;HPM_P2
2021/03/20 00:01:25;;;;;;;2.87;2.23;;;2.20;66.20;;;;;;4959907;28;20246;-84
2021/03/20 00:03:51;;;;;;;2.60;1.80;;;1.60;65.90;;;;;;4963329;28;20305;-85
2021/03/20 00:06:21;;;;;;;2.83;1.77;;;2.00;67.10;;;;;;4944516;29;20197;-85
2021/03/20 00:08:49;;;;;;;1.93;1.63;;;1.90;67.80;;;;;;4948460;29;20204;-85
2021/03/20 00:11:17;;;;;;;3.67;2.33;;;1.80;68.50;;;;;;4947344;28;20309;-86
2021/03/20 00:13:44;;;;;;;2.93;2.33;;;1.70;69.20;;;;;;4943451;28;20247;-85
2021/03/20 00:16:10;;;;;;;2.73;2.17;;;1.60;69.80;;;;;;4951375;28;20277;-85
2021/03/20 00:18:36;;;;;;;2.10;2.00;;;1.60;69.90;;;;;;4955241;28;20225;-84
2021/03/20 00:21:02;;;;;;;2.27;2.07;;;1.60;69.90;;;;;;4950563;29;20568;-85
2021/03/20 00:23:28;;;;;;;2.20;2.00;;;1.70;69.30;;;;;;4951506;28;20302;-85
2021/03/20 00:25:54;;;;;;;1.90;1.80;;;1.80;69.00;;;;;;4957927;29;20230;-84
2021/03/20 00:28:23;;;;;;;1.83;1.73;;;1.80;69.40;;;;;;4950860;29;20210;-84
2021/03/20 00:30:53;;;;;;;2.87;2.33;;;1.90;68.70;;;;;;4948596;29;20253;-84
2021/03/20 00:33:19;;;;;;;1.90;1.80;;;1.90;68.40;;;;;;4965557;29;20218;-84
2021/03/20 00:35:45;;;;;;;3.23;2.00;;;2.00;67.50;;;;;;4935420;29;20838;-85
2021/03/20 00:38:11;;;;;;;1.43;1.33;;;1.90;68.00;;;;;;4949814;28;20182;-84
2021/03/20 00:40:37;;;;;;;1.80;1.70;;;2.00;67.80;;;;;;4950119;28;20236;-85
2021/03/20 00:43:04;;;;;;;6.37;2.10;;;2.00;67.00;;;;;;4952149;28;20294;-85
2021/03/20 00:45:30;;;;;;;2.83;2.20;;;2.10;67.20;;;;;;4955610;28;20208;-85
2021/03/20 00:48:02;;;;;;;4.60;1.90;;;1.90;67.30;;;;;;4965056;29;20193;-85
2021/03/20 00:50:28;;;;;;;1.70;1.60;;;1.80;67.00;;;;;;4947282;29;20237;-85
2021/03/20 00:52:53;;;;;;;2.37;2.17;;;1.80;66.70;;;;;;4952632;28;20302;-84
2021/03/20 00:55:19;;;;;;;1.73;1.57;;;1.80;67.40;;;;;;4948046;28;20221;-85
2021/03/20 00:57:45;;;;;;;2.17;1.97;;;1.80;67.00;;;;;;4966077;28;20244;-84
2021/03/20 01:00:19;;;;;;;2.00;1.90;;;1.80;66.70;;;;;;4934912;29;20201;-83
2021/03/20 01:02:45;;;;;;;1.97;1.57;;;1.80;65.30;;;;;;4951472;29;20226;-84
2021/03/20 01:05:12;;;;;;;1.67;1.57;;;1.70;65.80;;;;;;4954947;29;20190;-84
2021/03/20 01:07:39;;;;;;;1.50;1.40;;;1.60;65.90;;;;;;4945029;29;20250;-84
2021/03/20 01:10:20;;;;;;;1.20;1.07;;;1.60;65.70;;;;;;4950463;28;20225;-84
2021/03/20 01:12:45;;;;;;;2.87;1.87;;;1.80;64.50;;;;;;4964825;29;20190;-84
2021/03/20 01:15:12;;;;;;;1.60;1.50;;;1.80;64.10;;;;;;4946349;29;20667;-84
2021/03/20 01:17:40;;;;;;;3.50;1.90;;;1.80;64.00;;;;;;4959643;29;20218;-84
2021/03/20 01:20:07;;;;;;;1.50;1.40;;;2.00;63.40;;;;;;4953560;28;20221;-84
2021/03/20 01:22:33;;;;;;;1.63;1.40;;;1.90;63.40;;;;;;4947435;29;20257;-84
2021/03/20 01:24:58;;;;;;;2.10;1.70;;;1.90;63.60;;;;;;4951629;29;20220;-84
2021/03/20 01:27:24;;;;;;;1.63;1.47;;;1.80;64.00;;;;;;4949362;28;20197;-84
2021/03/20 01:29:50;;;;;;;1.70;1.50;;;1.80;64.40;;;;;;4951227;29;20206;-84
2021/03/20 01:32:15;;;;;;;1.60;1.50;;;1.90;63.70;;;;;;4966988;28;20233;-85
2021/03/20 01:34:41;;;;;;;2.03;1.83;;;1.80;64.10;;;;;;4963833;29;20214;-84
2021/03/20 01:37:07;;;;;;;1.00;1.00;;;1.80;64.80;;;;;;4949947;29;20220;-84
2021/03/20 01:39:32;;;;;;;2.17;1.97;;;1.90;65.10;;;;;;4935793;28;20216;-84
2021/03/20 01:41:58;;;;;;;2.27;2.07;;;1.90;64.60;;;;;;4951122;28;20742;-85
2021/03/20 01:44:24;;;;;;;1.37;1.07;;;2.10;65.00;;;;;;4959639;28;20222;-85
2021/03/20 01:46:52;;;;;;;1.57;1.47;;;2.00;64.90;;;;;;4958503;29;20225;-85
2021/03/20 01:49:35;;;;;;;1.87;1.40;;;2.00;65.40;;;;;;4962771;29;20257;-85
2021/03/20 01:52:11;;;;;;;1.40;1.30;;;2.00;65.90;;;;;;4947762;29;20285;-84
2021/03/20 01:54:55;;;;;;;1.70;1.50;;;4.70;68.40;;;;;;4962120;28;20229;-85
2021/03/20 01:57:27;;;;;;;1.77;1.60;;;1.90;65.90;;;;;;4944434;28;20206;-85
2021/03/20 01:59:54;;;;;;;3.90;1.53;;;1.80;65.90;;;;;;4961169;29;20240;-88
2021/03/20 02:02:19;;;;;;;2.07;1.87;;;1.80;65.80;;;;;;4945001;29;20567;-88
2021/03/20 02:04:45;;;;;;;1.67;1.57;;;1.80;66.20;;;;;;4941860;28;20218;-88
2021/03/20 02:07:11;;;;;;;3.27;1.97;;;1.80;65.60;;;;;;4944179;29;20281;-88
2021/03/20 02:09:37;;;;;;;2.20;1.50;;;1.70;65.60;;;;;;4951090;28;20344;-88
2021/03/20 02:12:26;;;;;;;2.20;1.90;;;1.80;65.90;;;;;;4952771;29;20210;-87
2021/03/20 02:15:12;;;;;;;1.33;1.23;;;1.90;65.90;;;;;;4962201;29;20232;-87
2021/03/20 02:17:49;;;;;;;1.13;1.13;;;1.80;65.90;;;;;;4934377;29;20194;-87
2021/03/20 02:20:45;;;;;;;1.07;1.07;;;1.90;65.90;;;;;;4949878;28;20222;-87
2021/03/20 02:23:36;;;;;;;2.40;2.20;;;1.90;65.90;;;;;;4958740;28;20237;-88
2021/03/20 02:26:31;;;;;;;2.20;1.83;;;1.90;65.90;;;;;;4943030;28;20221;-88
2021/03/20 02:29:26;;;;;;;1.67;1.20;;;1.90;65.20;;;;;;4962256;28;20222;-87
2021/03/20 02:32:13;;;;;;;3.73;2.20;;;1.90;64.80;;;;;;4943911;29;20693;-87
2021/03/20 02:34:44;;;;;;;1.63;1.50;;;1.80;65.50;;;;;;4959397;28;20233;-88
2021/03/20 02:37:21;;;;;;;1.40;1.30;;;1.80;65.90;;;;;;4951691;28;20226;-88
2021/03/20 02:39:57;;;;;;;1.80;1.70;;;1.70;65.80;;;;;;4945354;28;20245;-87
2021/03/20 02:42:29;;;;;;;1.03;1.03;;;1.70;65.80;;;;;;4956148;28;20193;-87
2021/03/20 02:45:12;;;;;;;1.83;1.67;;;1.70;65.80;;;;;;4945002;28;20597;-84
2021/03/20 02:48:02;;;;;;;2.03;1.90;;;1.60;65.70;;;;;;4940363;28;20313;-83
2021/03/20 02:50:37;;;;;;;1.80;1.70;;;1.70;65.80;;;;;;4960965;28;20238;-83
2021/03/20 02:53:27;;;;;;;4.53;1.57;;;1.60;65.00;;;;;;4961731;29;20209;-83
2021/03/20 02:55:57;;;;;;;4.10;1.20;;;1.70;64.80;;;;;;4947720;29;20229;-83
2021/03/20 02:58:36;;;;;;;1.53;1.43;;;1.60;64.30;;;;;;4945870;28;20222;-83
2021/03/20 03:01:08;;;;;;;1.43;1.33;;;1.60;64.40;;;;;;4962292;29;20182;-83
2021/03/20 03:03:37;;;;;;;2.20;1.47;;;1.60;62.60;;;;;;4963281;28;20217;-83
2021/03/20 03:06:06;;;;;;;2.13;1.80;;;1.60;63.60;;;;;;4956689;29;20190;-82
2021/03/20 03:08:38;;;;;;;1.80;1.70;;;1.50;63.90;;;;;;4945978;28;20222;-82
2021/03/20 03:11:12;;;;;;;2.03;1.83;;;1.60;63.50;;;;;;4949536;28;20236;-82
2021/03/20 03:13:43;;;;;;;1.47;1.13;;;1.50;63.20;;;;;;4950952;29;20237;-83
2021/03/20 03:16:21;;;;;;;1.63;1.50;;;1.50;64.30;;;;;;4948083;28;20226;-82
2021/03/20 03:19:10;;;;;;;1.40;1.30;;;1.40;63.80;;;;;;4944556;29;20198;-84
2021/03/20 03:21:41;;;;;;;0.93;0.93;;;1.50;63.10;;;;;;4945099;28;20235;-82
2021/03/20 03:24:11;;;;;;;4.13;1.87;;;1.60;63.20;;;;;;4939984;29;20201;-82
2021/03/20 03:26:42;;;;;;;1.27;1.17;;;1.70;63.10;;;;;;4948551;29;20245;-82
2021/03/20 03:29:14;;;;;;;1.20;1.20;;;1.60;63.30;;;;;;4944657;28;20210;-82
2021/03/20 03:32:01;;;;;;;1.70;1.60;;;1.60;63.10;;;;;;4939896;29;20229;-82
2021/03/20 03:34:50;;;;;;;1.20;1.20;;;1.50;63.00;;;;;;4947176;29;20532;-83
2021/03/20 03:37:49;;;;;;;1.00;0.90;;;1.50;63.40;;;;;;4959652;29;20205;-82
2021/03/20 03:40:30;;;;;;;1.23;1.13;;;1.40;62.90;;;;;;4958923;28;20218;-82
2021/03/20 03:42:56;;;;;;;0.90;0.90;;;1.40;63.00;;;;;;4945454;28;20308;-83
2021/03/20 03:45:22;;;;;;;1.60;1.50;;;1.30;63.50;;;;;;4963971;28;20198;-83
2021/03/20 03:47:48;;;;;;;1.73;1.60;;;1.30;63.50;;;;;;4946173;29;20185;-82
2021/03/20 03:50:25;;;;;;;1.80;1.70;;;1.30;63.30;;;;;;4952150;28;20242;-83
2021/03/20 03:52:51;;;;;;;1.83;1.73;;;1.30;63.70;;;;;;4964045;28;20225;-83
2021/03/20 03:55:17;;;;;;;2.50;1.83;;;1.30;63.90;;;;;;4951608;29;20226;-82
2021/03/20 03:58:11;;;;;;;1.67;1.57;;;1.20;63.90;;;;;;4931522;29;20264;-83
2021/03/20 04:00:44;;;;;;;1.50;1.40;;;1.20;62.90;;;;;;4944690;28;20201;-82
2021/03/20 04:03:41;;;;;;;1.23;1.13;;;1.10;62.40;;;;;;4962904;29;20225;-83
2021/03/20 04:06:49;;;;;;;1.43;1.33;;;1.10;62.90;;;;;;4961034;29;20235;-82
2021/03/20 04:09:26;;;;;;;2.00;1.80;;;1.10;61.60;;;;;;4911307;29;20211;-83
2021/03/20 04:12:16;;;;;;;1.47;1.30;;;1.00;61.20;;;;;;4907055;29;20235;-82
2021/03/20 04:14:55;;;;;;;1.40;1.30;;;1.00;61.70;;;;;;4907657;29;20219;-83
2021/03/20 04:17:26;;;;;;;1.20;1.10;;;1.10;62.00;;;;;;4915492;29;20289;-82
2021/03/20 04:20:05;;;;;;;1.30;1.20;;;1.00;62.50;;;;;;4904314;29;20223;-82
2021/03/20 04:22:59;;;;;;;1.00;0.90;;;1.00;63.50;;;;;;4916512;29;20246;-82
2021/03/20 04:25:48;;;;;;;1.00;1.00;;;1.00;64.40;;;;;;4896659;29;20584;-83
2021/03/20 04:28:29;;;;;;;1.20;1.20;;;1.00;65.10;;;;;;4896073;29;20219;-83
2021/03/20 04:31:08;;;;;;;1.27;1.27;;;0.90;65.10;;;;;;4908291;29;20232;-83
2021/03/20 04:34:04;;;;;;;2.10;1.70;;;1.00;65.10;;;;;;4913037;29;20236;-82
2021/03/20 04:36:49;;;;;;;1.53;1.30;;;0.90;65.10;;;;;;4910041;29;20692;-83
2021/03/20 04:39:19;;;;;;;2.33;1.50;;;0.90;65.70;;;;;;4900208;29;20203;-82
2021/03/20 04:41:46;;;;;;;1.20;1.17;;;0.90;65.70;;;;;;4886884;29;20219;-82
2021/03/20 04:44:12;;;;;;;1.00;0.90;;;0.80;65.40;;;;;;4905879;29;20688;-82
2021/03/20 04:46:39;;;;;;;1.17;1.17;;;0.80;64.40;;;;;;4928439;28;20290;-82
2021/03/20 04:49:18;;;;;;;1.20;1.10;;;0.80;65.00;;;;;;4952414;29;20229;-83
2021/03/20 04:52:08;;;;;;;3.27;1.77;;;0.90;63.10;;;;;;4959441;28;20231;-83
2021/03/20 04:54:35;;;;;;;0.97;0.97;;;1.00;62.10;;;;;;4962625;28;20195;-83
2021/03/20 04:57:11;;;;;;;0.97;0.97;;;0.90;61.10;;;;;;4965026;29;20559;-83
2021/03/20 05:00:03;;;;;;;2.37;1.03;;;0.90;61.70;;;;;;4962433;29;20183;-83
2021/03/20 05:03:04;;;;;;;1.03;0.90;;;0.90;61.30;;;;;;4947401;28;20377;-83
2021/03/20 05:05:50;;;;;;;0.93;0.93;;;0.90;60.70;;;;;;4929979;29;20251;-83
2021/03/20 05:08:33;;;;;;;1.97;1.87;;;0.80;61.20;;;;;;4951543;29;20189;-83
2021/03/20 05:11:13;;;;;;;0.83;0.73;;;0.70;61.80;;;;;;4961926;29;20619;-86
2021/03/20 05:13:58;;;;;;;1.27;1.17;;;0.80;61.90;;;;;;4959202;28;20268;-86
2021/03/20 05:16:24;;;;;;;1.03;1.03;;;;;;;;;;4962949;28;20257;-86
2021/03/20 05:18:50;;;;;;;4.17;0.80;;;0.80;59.80;;;;;;4937831;29;20201;-86
2021/03/20 05:21:20;;;;;;;1.27;1.17;;;0.80;58.10;;;;;;4948000;29;20573;-86
2021/03/20 05:23:46;;;;;;;1.37;1.27;;;1.10;58.90;;;;;;4943723;28;20191;-86
2021/03/20 05:26:13;;;;;;;2.53;1.47;;;0.80;58.40;;;;;;4939105;28;20381;-86
2021/03/20 05:28:39;;;;;;;0.80;0.80;;;0.80;58.50;;;;;;4940612;29;21279;-86
2021/03/20 05:31:05;;;;;;;1.27;0.93;;;0.80;56.60;;;;;;4947049;29;20193;-87
2021/03/20 05:33:33;;;;;;;1.13;0.80;;;1.10;56.90;;;;;;4945470;28;20702;-87
2021/03/20 05:35:59;;;;;;;0.77;0.77;;;0.70;56.20;;;;;;4959126;28;20182;-87
2021/03/20 05:38:26;;;;;;;1.30;1.30;;;1.10;53.80;;;;;;4939422;29;20331;-86
2021/03/20 05:41:01;;;;;;;0.60;0.60;;;0.70;52.70;;;;;;4947401;29;20178;-86
2021/03/20 05:43:36;;;;;;;0.83;0.83;;;0.70;52.80;;;;;;4950311;28;20232;-86
2021/03/20 05:46:29;;;;;;;0.80;0.80;;;0.70;53.10;;;;;;4956460;28;20224;-86
2021/03/20 05:49:31;;;;;;;0.80;0.80;;;0.80;52.40;;;;;;4960973;29;20190;-86
2021/03/20 05:52:30;;;;;;;0.80;0.80;;;0.70;53.60;;;;;;4954687;28;20230;-86
2021/03/20 05:55:09;;;;;;;0.87;0.87;;;0.80;52.40;;;;;;4953446;28;20717;-86
2021/03/20 05:57:44;;;;;;;0.67;0.67;;;0.80;51.80;;;;;;4937320;29;20595;-86
2021/03/20 06:00:25;;;;;;;0.77;0.77;;;0.80;52.10;;;;;;4939260;29;20201;-86
2021/03/20 06:03:09;;;;;;;1.47;1.37;;;0.80;52.80;;;;;;4943625;29;20214;-86
2021/03/20 06:05:59;;;;;;;1.33;1.13;;;0.80;53.50;;;;;;4944575;28;20236;-86
2021/03/20 06:08:25;;;;;;;0.50;0.50;;;;;;;;;;4941531;29;20194;-86
2021/03/20 06:10:56;;;;;;;1.93;1.27;;;0.80;53.50;;;;;;4941627;29;20244;-86
2021/03/20 06:13:27;;;;;;;0.57;0.57;;;0.80;54.40;;;;;;4947696;29;20256;-86
2021/03/20 06:16:14;;;;;;;1.13;1.03;;;0.90;54.60;;;;;;4942588;28;20599;-86
2021/03/20 06:18:59;;;;;;;2.07;1.50;;;0.80;53.70;;;;;;4960085;29;20221;-86
2021/03/20 06:21:53;;;;;;;0.80;0.80;;;0.80;54.20;;;;;;4940392;29;20181;-86
2021/03/20 06:24:40;;;;;;;3.10;1.07;;;0.80;53.50;;;;;;4940323;28;20270;-85
2021/03/20 06:27:15;;;;;;;0.80;0.80;;;0.90;52.70;;;;;;4956054;28;20187;-86
2021/03/20 06:30:30;;;;;;;0.93;0.93;;;0.90;51.90;;;;;;4939453;29;20228;-86
2021/03/20 06:33:02;;;;;;;2.10;1.00;;;0.90;50.50;;;;;;4931675;29;20237;-86
2021/03/20 06:35:49;;;;;;;0.90;0.90;;;1.10;50.30;;;;;;4952935;29;20194;-86
2021/03/20 06:38:28;;;;;;;0.50;0.50;;;1.30;48.60;;;;;;4954331;28;20221;-86
2021/03/20 06:41:08;;;;;;;1.00;1.00;;;1.40;47.40;;;;;;4944139;29;20205;-86
2021/03/20 06:43:38;;;;;;;2.53;1.17;;;1.40;45.70;;;;;;4947268;29;20301;-85
2021/03/20 06:46:11;;;;;;;0.83;0.70;;;1.30;45.30;;;;;;4962901;28;20238;-85
2021/03/20 06:48:37;;;;;;;0.67;0.67;;;1.40;45.30;;;;;;4962056;28;20209;-86
2021/03/20 06:51:02;;;;;;;0.77;0.77;;;1.40;44.80;;;;;;4940349;29;20199;-86
2021/03/20 06:53:43;;;;;;;0.83;0.83;;;1.40;45.50;;;;;;4929015;29;20294;-86
2021/03/20 06:56:11;;;;;;;0.60;0.60;;;1.50;45.60;;;;;;4947577;28;20218;-85
2021/03/20 06:58:39;;;;;;;0.57;0.57;;;1.50;45.50;;;;;;4947327;29;20182;-86
2021/03/20 07:01:37;;;;;;;1.20;1.20;;;1.50;45.40;;;;;;4939774;28;20287;-86
2021/03/20 07:04:31;;;;;;;0.57;0.57;;;1.70;45.20;;;;;;4937578;28;20260;-86
2021/03/20 07:07:21;;;;;;;1.37;1.27;;;1.70;45.40;;;;;;4959203;29;20192;-87
2021/03/20 07:09:49;;;;;;;1.33;0.90;;;1.70;45.30;;;;;;4959974;28;20246;-86
2021/03/20 07:12:18;;;;;;;1.10;0.80;;;1.70;45.80;;;;;;4961827;29;20217;-86
2021/03/20 07:14:53;;;;;;;0.87;0.87;;;1.80;45.20;;;;;;4944313;28;20228;-86
2021/03/20 07:17:26;;;;;;;1.60;0.60;;;2.10;43.30;;;;;;4963785;28;20218;-86
2021/03/20 07:20:00;;;;;;;0.63;0.63;;;2.10;44.00;;;;;;4959972;29;20190;-86
2021/03/20 07:22:45;;;;;;;2.53;1.23;;;2.20;43.70;;;;;;4954106;28;20233;-87
2021/03/20 07:25:31;;;;;;;1.07;1.00;;;2.10;43.90;;;;;;4935651;29;20632;-87
2021/03/20 07:28:08;;;;;;;1.27;1.17;;;1.70;42.30;;;;;;4950058;29;20228;-87
2021/03/20 07:30:52;;;;;;;0.70;0.70;;;3.30;44.10;;;;;;4939288;28;20193;-89
2021/03/20 07:33:31;;;;;;;0.70;0.70;;;1.90;43.50;;;;;;4955407;28;20205;-90
2021/03/20 07:36:29;;;;;;;0.60;0.60;;;2.10;42.80;;;;;;4944795;29;20252;-89
2021/03/20 07:39:13;;;;;;;0.50;0.50;;;2.00;42.90;;;;;;4945596;29;20232;-86
2021/03/20 07:41:54;;;;;;;0.83;0.83;;;2.20;42.60;;;;;;4945266;28;20196;-87
2021/03/20 07:44:21;;;;;;;0.80;0.80;;;2.40;42.10;;;;;;4966401;28;20225;-88
2021/03/20 07:46:47;;;;;;;0.93;0.93;;;2.50;40.90;;;;;;4941147;29;20697;-86
2021/03/20 07:49:21;;;;;;;0.87;0.87;;;2.40;40.80;;;;;;4957569;28;20189;-86
2021/03/20 07:51:59;;;;;;;0.60;0.60;;;2.30;40.70;;;;;;4957675;28;20217;-86
2021/03/20 07:54:34;;;;;;;1.10;1.10;;;2.20;40.70;;;;;;4944705;28;20190;-86
2021/03/20 07:57:15;;;;;;;4.93;0.90;;;2.30;41.10;;;;;;4942184;28;20209;-87
2021/03/20 07:59:52;;;;;;;1.60;1.13;;;2.60;39.70;;;;;;4943690;29;20217;-86
2021/03/20 08:02:37;;;;;;;1.57;0.93;;;2.80;39.10;;;;;;4946608;29;20230;-86
2021/03/20 08:05:27;;;;;;;4.47;0.80;;;2.80;39.60;;;;;;4943176;28;20713;-87
2021/03/20 08:07:54;;;;;;;0.70;0.70;;;3.10;37.70;;;;;;4967088;28;20313;-86
2021/03/20 08:10:29;;;;;;;0.70;0.70;;;3.00;37.50;;;;;;4966351;28;20261;-87
2021/03/20 08:12:55;;;;;;;0.50;0.50;;;;;;;;;;4955857;29;20252;-87
2021/03/20 08:15:26;;;;;;;0.60;0.60;;;2.80;34.80;;;;;;4947822;28;20193;-87
2021/03/20 08:17:52;;;;;;;0.43;0.43;;;2.70;36.60;;;;;;4955149;28;20197;-87
2021/03/20 08:20:17;;;;;;;0.70;0.70;;;5.70;38.40;;;;;;4943408;29;20191;-87
2021/03/20 08:22:52;;;;;;;0.50;0.50;;;2.70;37.40;;;;;;4952181;29;20916;-87
2021/03/20 08:25:40;;;;;;;0.80;0.80;;;2.70;35.30;;;;;;4958074;28;20238;-87
2021/03/20 08:28:24;;;;;;;0.80;0.80;;;2.60;35.40;;;;;;4944917;29;20201;-88
2021/03/20 08:30:58;;;;;;;0.57;0.57;;;2.40;36.60;;;;;;4954924;28;20236;-88
2021/03/20 08:33:42;;;;;;;0.60;0.60;;;2.50;35.90;;;;;;4955674;28;20214;-88
2021/03/20 08:36:33;;;;;;;0.80;0.80;;;2.40;34.90;;;;;;4963041;29;20193;-87
2021/03/20 08:39:01;;;;;;;0.53;0.53;;;2.50;36.40;;;;;;4960816;29;20187;-88
2021/03/20 08:41:55;;;;;;;0.57;0.57;;;2.70;36.30;;;;;;4951830;28;20193;-88
2021/03/20 08:44:57;;;;;;;0.73;0.73;;;2.80;35.90;;;;;;4947396;28;20218;-88
2021/03/20 08:47:52;;;;;;;0.60;0.60;;;2.80;32.80;;;;;;4962995;28;20205;-87
2021/03/20 08:50:17;;;;;;;0.47;0.47;;;2.80;34.90;;;;;;4942214;29;20186;-88
2021/03/20 08:53:08;;;;;;;0.60;0.60;;;2.80;34.70;;;;;;4953921;28;20421;-88
2021/03/20 08:56:09;;;;;;;1.10;0.73;;;2.80;34.40;;;;;;4956333;28;20265;-89
2021/03/20 08:58:54;;;;;;;0.70;0.70;;;2.90;35.20;;;;;;4958515;28;20230;-88
2021/03/20 09:01:26;;;;;;;0.60;0.60;;;3.10;35.40;;;;;;4942430;29;20212;-87
2021/03/20 09:03:55;;;;;;;1.50;0.77;;;3.20;36.00;;;;;;4943602;28;20233;-87
2021/03/20 09:06:24;;;;;;;1.00;1.00;;;3.30;36.20;;;;;;4946916;29;20193;-87
2021/03/20 09:08:53;;;;;;;0.33;0.33;;;3.40;34.80;;;;;;4955202;28;20194;-87
2021/03/20 09:11:20;;;;;;;0.50;0.50;;;3.20;34.00;;;;;;4943769;29;20705;-88
2021/03/20 09:14:19;;;;;;;1.50;1.07;;;3.20;34.60;;;;;;4956877;28;20240;-88
2021/03/20 09:16:47;;;;;;;1.10;0.70;;;3.30;35.40;;;;;;4939232;29;20240;-88
2021/03/20 09:19:19;;;;;;;0.50;0.50;;;3.50;32.80;;;;;;4942700;28;20224;-88
2021/03/20 09:21:47;;;;;;;0.70;0.70;;;3.80;33.20;;;;;;4947655;29;20284;-87
2021/03/20 09:24:28;;;;;;;2.77;1.00;;;4.10;30.00;;;;;;4949954;29;20190;-87
2021/03/20 09:26:58;;;;;;;0.73;0.73;;;4.10;31.00;;;;;;4946595;29;20217;-88
2021/03/20 09:29:24;;;;;;;1.07;0.60;;;3.90;29.10;;;;;;4945505;29;20670;-87
2021/03/20 09:31:53;;;;;;;0.50;0.50;;;3.90;29.20;;;;;;4945011;29;20194;-88
2021/03/20 09:34:40;;;;;;;0.60;0.60;;;4.20;30.20;;;;;;4940544;29;20190;-88
2021/03/20 09:37:18;;;;;;;0.83;0.40;;;4.20;30.70;;;;;;4939795;28;20241;-88
2021/03/20 09:39:53;;;;;;;1.20;0.63;;;4.30;30.30;;;;;;4963617;28;20257;-87
2021/03/20 09:42:27;;;;;;;0.50;0.50;;;4.20;30.50;;;;;;4954304;28;20217;-87
2021/03/20 09:45:11;;;;;;;0.70;0.70;;;4.00;28.70;;;;;;4943560;28;20635;-86
2021/03/20 09:47:53;;;;;;;0.60;0.60;;;3.90;30.30;;;;;;4936020;29;20199;-87
2021/03/20 09:50:19;;;;;;;0.80;0.80;;;3.90;29.40;;;;;;4947959;28;20229;-86
2021/03/20 09:52:47;;;;;;;0.60;0.60;;;4.00;29.40;;;;;;4946753;29;20222;-86
2021/03/20 09:55:28;;;;;;;0.80;0.73;;;4.10;27.20;;;;;;4953050;29;20222;-87
2021/03/20 09:57:55;;;;;;;0.70;0.70;;;4.10;27.40;;;;;;4956534;28;20218;-88
2021/03/20 10:00:50;;;;;;;1.70;0.63;;;3.90;27.80;;;;;;4953542;29;20221;-87
2021/03/20 10:03:48;;;;;;;0.60;0.60;;;3.90;25.00;;;;;;4938378;29;20229;-89
2021/03/20 10:06:34;;;;;;;0.67;0.67;;;4.00;25.80;;;;;;4950308;29;20222;-87
2021/03/20 10:09:06;;;;;;;0.50;0.50;;;4.10;26.60;;;;;;4945877;29;20242;-86
2021/03/20 10:12:00;;;;;;;0.93;0.80;;;4.20;27.00;;;;;;4945462;28;20745;-82
2021/03/20 10:14:49;;;;;;;0.97;0.87;;;4.20;27.60;;;;;;4942106;29;20224;-82
2021/03/20 10:17:17;;;;;;;0.80;0.77;;;4.20;27.50;;;;;;4944024;29;20198;-83
2021/03/20 10:20:04;;;;;;;0.60;0.60;;;4.20;28.40;;;;;;4942426;28;20206;-83
2021/03/20 10:22:37;;;;;;;0.63;0.63;;;4.20;27.70;;;;;;4950095;28;20221;-82
2021/03/20 10:25:05;;;;;;;0.33;0.33;;;4.00;27.30;;;;;;4945654;28;20221;-81
2021/03/20 10:27:35;;;;;;;0.50;0.50;;;4.10;25.90;;;;;;4949422;29;20215;-82
2021/03/20 10:30:37;;;;;;;0.60;0.60;;;4.10;26.30;;;;;;4944133;29;20194;-81
2021/03/20 10:33:15;;;;;;;0.80;0.67;;;3.90;27.60;;;;;;4892080;29;20208;-80
2021/03/20 10:35:41;;;;;;;1.43;0.73;;;4.00;28.00;;;;;;4944210;29;20219;-81
2021/03/20 10:38:28;;;;;;;0.53;0.53;;;4.20;28.50;;;;;;4958984;29;20224;-81
2021/03/20 10:41:03;;;;;;;2.03;0.77;;;4.30;26.00;;;;;;4944134;28;20268;-82
2021/03/20 10:43:33;;;;;;;0.40;0.40;;;4.40;25.30;;;;;;4965770;28;20230;-82
2021/03/20 10:45:59;;;;;;;0.57;0.57;;;4.10;25.50;;;;;;4951395;28;20261;-81
2021/03/20 10:48:28;;;;;;;0.50;0.50;;;4.20;25.70;;;;;;4947853;28;20189;-81
2021/03/20 10:51:00;;;;;;;0.90;0.90;;;4.40;26.30;;;;;;4956149;29;20674;-81
2021/03/20 10:53:30;;;;;;;0.60;0.60;;;4.50;26.60;;;;;;4952920;28;20324;-81
2021/03/20 10:56:00;;;;;;;0.57;0.57;;;4.40;25.70;;;;;;4940097;28;20695;-82
2021/03/20 10:58:32;;;;;;;0.93;0.40;;;4.50;25.40;;;;;;4961523;28;20221;-83
2021/03/20 11:00:58;;;;;;;0.87;0.87;;;4.70;26.20;;;;;;4941044;29;20246;-81
2021/03/20 11:03:34;;;;;;;0.53;0.53;;;4.60;26.30;;;;;;4939672;29;20230;-81
2021/03/20 11:06:22;;;;;;;0.63;0.53;;;4.60;26.30;;;;;;4935738;29;20203;-82
2021/03/20 11:09:34;;;;;;;0.40;0.40;;;4.80;26.00;;;;;;4929219;29;20265;-81
2021/03/20 11:12:04;;;;;;;0.63;0.50;;;4.80;26.00;;;;;;4933879;29;20202;-82
2021/03/20 11:14:31;;;;;;;0.50;0.50;;;4.80;26.00;;;;;;4928355;29;20236;-81
2021/03/20 11:17:02;;;;;;;0.43;0.43;;;5.00;26.10;;;;;;4932820;29;20226;-83
2021/03/20 11:19:36;;;;;;;0.60;0.60;;;4.90;25.70;;;;;;4936577;29;20227;-86
2021/03/20 11:22:41;;;;;;;1.13;0.77;;;4.80;26.00;;;;;;4920248;29;20255;-85
2021/03/20 11:25:08;;;;;;;0.67;0.67;;;4.80;26.00;;;;;;4922860;29;20236;-83
2021/03/20 11:27:39;;;;;;;0.50;0.50;;;5.00;26.20;;;;;;4927817;29;20191;-83
2021/03/20 11:30:15;;;;;;;1.40;0.93;;;5.10;26.20;;;;;;4925212;29;20182;-82
2021/03/20 11:32:44;;;;;;;0.67;0.67;;;5.20;26.20;;;;;;4943267;29;20233;-83
2021/03/20 11:35:27;;;;;;;0.80;0.80;;;5.40;26.40;;;;;;4945491;28;20225;-83
2021/03/20 11:37:54;;;;;;;1.23;0.67;;;5.70;25.20;;;;;;4958120;28;20237;-85
2021/03/20 11:40:24;;;;;;;0.77;0.67;;;5.70;25.70;;;;;;4943917;29;20225;-84
2021/03/20 11:42:54;;;;;;;0.43;0.43;;;5.80;26.60;;;;;;4945921;29;20204;-84
2021/03/20 11:45:33;;;;;;;0.67;0.60;;;5.70;23.80;;;;;;4950732;29;20217;-84
2021/03/20 11:48:06;;;;;;;2.33;0.50;;;6.00;25.90;;;;;;4945872;29;20215;-84
2021/03/20 11:50:34;;;;;;;0.77;0.77;;;6.50;25.30;;;;;;4948063;29;20197;-83
2021/03/20 11:53:24;;;;;;;0.50;0.50;;;7.30;25.80;;;;;;4963507;28;20225;-84
2021/03/20 11:55:52;;;;;;;0.57;0.57;;;;;;;;;;4951164;28;20225;-84
2021/03/20 11:58:33;;;;;;;0.87;0.47;;;8.40;21.10;;;;;;4948474;29;20195;-84
2021/03/20 12:01:20;;;;;;;0.50;0.50;;;9.20;21.50;;;;;;4941976;28;20250;-85
2021/03/20 12:03:46;;;;;;;0.53;0.53;;;9.60;20.40;;;;;;4948513;28;20280;-84
2021/03/20 12:06:28;;;;;;;0.60;0.60;;;9.90;20.30;;;;;;4944323;28;20186;-83
2021/03/20 12:08:56;;;;;;;0.40;0.30;;;10.40;19.40;;;;;;4960816;29;20182;-84
2021/03/20 12:11:45;;;;;;;1.07;0.97;;;9.90;20.20;;;;;;4949070;28;20998;-83
2021/03/20 12:14:49;;;;;;;0.50;0.50;;;9.70;20.50;;;;;;4945343;28;20626;-85
2021/03/20 12:17:19;;;;;;;0.70;0.70;;;10.00;18.80;;;;;;4949104;28;20231;-85
2021/03/20 12:20:04;;;;;;;0.50;0.50;;;9.50;20.30;;;;;;4951120;28;20218;-85
2021/03/20 12:22:32;;;;;;;0.70;0.70;;;10.50;19.30;;;;;;4944788;29;20246;-84
2021/03/20 12:25:15;;;;;;;0.67;0.60;;;11.10;19.50;;;;;;4945259;29;20214;-84
2021/03/20 12:27:42;;;;;;;1.40;1.27;;;10.80;18.10;;;;;;4961378;28;20223;-84
2021/03/20 12:30:26;;;;;;;0.53;0.53;;;11.40;17.90;;;;;;4946108;29;20197;-86
2021/03/20 12:33:15;;;;;;;0.60;0.60;;;11.60;18.50;;;;;;4963695;28;20638;-85
2021/03/20 12:35:49;;;;;;;1.90;1.70;;;11.60;17.70;;;;;;4944640;29;20226;-85
2021/03/20 12:38:24;;;;;;;0.70;0.70;;;12.30;17.90;;;;;;4955477;28;20237;-86
2021/03/20 12:41:02;;;;;;;1.10;0.83;;;11.80;17.40;;;;;;4964216;28;20314;-85
2021/03/20 12:43:33;;;;;;;1.23;1.13;;;11.10;18.30;;;;;;4958559;28;20234;-86
2021/03/20 12:46:02;;;;;;;1.23;0.97;;;10.90;18.60;;;;;;4951679;29;20224;-86
2021/03/20 12:48:29;;;;;;;0.50;0.50;;;10.80;18.80;;;;;;4959791;28;20370;-86
2021/03/20 12:51:03;;;;;;;0.73;0.73;;;10.60;18.20;;;;;;4950054;29;20201;-86
2021/03/20 12:53:28;;;;;;;1.63;1.00;;;10.80;17.90;;;;;;4947560;28;20248;-86
2021/03/20 12:55:54;;;;;;;3.13;1.33;;;11.10;20.00;;;;;;4949012;28;20214;-87
2021/03/20 12:58:20;;;;;;;2.37;1.40;;;10.90;19.20;;;;;;4951830;29;20675;-87
2021/03/20 13:00:46;;;;;;;1.10;0.87;;;10.50;19.20;;;;;;4951838;28;20598;-87
2021/03/20 13:03:12;;;;;;;0.60;0.60;;;10.40;19.90;;;;;;4949890;29;20638;-87
2021/03/20 13:05:42;;;;;;;1.00;0.70;;;10.50;20.10;;;;;;4949242;29;20197;-86
2021/03/20 13:08:09;;;;;;;0.90;0.90;;;9.90;20.70;;;;;;4953461;28;20218;-86
2021/03/20 13:10:35;;;;;;;2.00;0.90;;;9.10;22.00;;;;;;4957495;29;20190;-87
2021/03/20 13:13:01;;;;;;;2.63;1.17;;;8.90;21.90;;;;;;4949574;28;20245;-84
2021/03/20 13:15:27;;;;;;;5.63;1.80;;;9.00;22.40;;;;;;4957237;29;20190;-83
2021/03/20 13:17:53;;;;;;;4.93;2.20;;;9.20;22.30;;;;;;4957285;29;20602;-84
2021/03/20 13:20:21;;;;;;;1.20;1.13;;;9.30;22.00;;;;;;4952408;29;20213;-83
2021/03/20 13:22:47;;;;;;;1.03;0.90;;;9.00;22.70;;;;;;4948572;28;20230;-83
2021/03/20 13:25:21;;;;;;;1.03;1.00;;;8.70;22.70;;;;;;4955568;29;20230;-84
2021/03/20 13:27:47;;;;;;;0.77;0.73;;;8.50;23.50;;;;;;4967074;28;20227;-84
2021/03/20 13:30:13;;;;;;;1.20;1.10;;;8.50;23.30;;;;;;4954474;29;20205;-85
2021/03/20 13:32:39;;;;;;;1.20;1.13;;;8.50;23.00;;;;;;4955724;28;20253;-83
2021/03/20 13:35:05;;;;;;;0.80;0.80;;;8.60;23.50;;;;;;4946794;28;20181;-82
2021/03/20 13:37:31;;;;;;;1.33;1.17;;;8.30;23.00;;;;;;4954408;28;20295;-82
2021/03/20 13:39:56;;;;;;;2.27;0.97;;;8.00;24.40;;;;;;4949079;29;20226;-83
2021/03/20 13:42:22;;;;;;;1.47;1.10;;;8.30;24.00;;;;;;4958524;29;20200;-83